createdAt,value
2018-04-08T00:00:39.876Z,75.09
2018-04-08T00:01:39.883Z,75.37
2018-04-08T00:02:39.904Z,76.23
2018-04-08T00:03:39.849Z,75.76
2018-04-08T00:04:39.841Z,75.66
2018-04-08T00:05:39.834Z,74.52
2018-04-08T00:06:39.824Z,74.23
2018-04-08T00:07:39.815Z,72.80
2018-04-08T00:08:39.806Z,73.28
2018-04-08T00:09:39.797Z,72.51
2018-04-08T00:10:39.819Z,72.71
2018-04-08T00:11:39.780Z,72.99
2018-04-08T00:12:39.771Z,73.56
2018-04-08T00:13:39.777Z,71.88
2018-04-08T00:14:39.754Z,72.55
2018-04-08T00:15:39.745Z,73.32
2018-04-08T00:16:39.737Z,74.08
2018-04-08T00:17:39.727Z,74.23
2018-04-08T00:18:39.718Z,74.13
2018-04-08T00:19:39.737Z,74.13
2018-04-08T00:20:39.701Z,73.94
2018-04-08T00:21:39.692Z,74.42
2018-04-08T00:22:39.693Z,75.18
2018-04-08T00:23:39.674Z,74.52
2018-04-08T00:24:39.666Z,75.47
2018-04-08T00:25:39.659Z,75.66
2018-04-08T00:26:39.647Z,75.95
2018-04-08T00:27:39.643Z,75.28
2018-04-08T00:28:39.631Z,75.09
2018-04-08T00:29:39.620Z,75.66
2018-04-08T00:30:39.612Z,75.66
2018-04-08T00:31:39.603Z,75.95
2018-04-08T00:32:39.595Z,76.62
2018-04-08T00:33:39.589Z,74.99
2018-04-08T00:34:39.582Z,75.62
2018-04-08T00:35:39.576Z,75.28
2018-04-08T00:36:39.559Z,74.77
2018-04-08T00:37:39.549Z,75.43
2018-04-08T00:38:39.540Z,75.91
2018-04-08T00:39:39.532Z,75.72
2018-04-08T00:40:39.530Z,76.48
2018-04-08T00:41:39.514Z,75.81
2018-04-08T00:42:39.533Z,76.39
2018-04-08T00:43:39.497Z,76.20
2018-04-08T00:44:39.488Z,76.10
2018-04-08T00:45:39.478Z,76.57
2018-04-08T00:46:39.470Z,76.20
2018-04-08T00:47:39.460Z,76.20
2018-04-08T00:48:39.452Z,76.29
2018-04-08T00:49:39.443Z,76.39
2018-04-08T00:50:39.479Z,76.57
2018-04-08T00:51:39.425Z,76.77
2018-04-08T00:52:39.416Z,76.10
2018-04-08T00:53:39.406Z,76.10
2018-04-08T00:54:39.397Z,76.20
2018-04-08T00:55:39.391Z,75.72
2018-04-08T00:56:39.379Z,75.34
2018-04-08T00:57:39.384Z,75.34
2018-04-08T00:58:39.364Z,75.43
2018-04-08T00:59:39.405Z,76.01
2018-04-08T01:00:39.344Z,76.48
2018-04-08T01:01:39.334Z,76.48
2018-04-08T01:02:39.334Z,76.48
2018-04-08T01:03:39.316Z,76.29
2018-04-08T01:04:39.320Z,76.96
2018-04-08T01:05:39.297Z,73.91
2018-04-08T01:06:39.288Z,75.24
2018-04-08T01:07:39.303Z,73.72
2018-04-08T01:08:39.273Z,72.19
2018-04-08T01:09:39.260Z,71.43
2018-04-08T01:10:39.251Z,70.61
2018-04-08T01:11:39.245Z,69.27
2018-04-08T01:12:39.233Z,68.82
2018-04-08T01:13:39.224Z,68.44
2018-04-08T01:14:39.230Z,69.02
2018-04-08T01:15:39.205Z,68.79
2018-04-08T01:16:39.197Z,70.13
2018-04-08T01:17:39.187Z,70.64
2018-04-08T01:18:39.178Z,71.50
2018-04-08T01:19:39.181Z,72.32
2018-04-08T01:20:39.159Z,72.61
2018-04-08T01:21:39.152Z,72.89
2018-04-08T01:22:39.141Z,73.28
2018-04-08T01:23:39.132Z,73.94
2018-04-08T01:24:39.124Z,73.56
2018-04-08T01:25:39.115Z,73.81
2018-04-08T01:26:39.105Z,74.19
2018-04-08T01:27:39.138Z,73.91
2018-04-08T01:28:39.087Z,74.10
2018-04-08T01:29:39.077Z,74.38
2018-04-08T01:30:39.071Z,74.29
2018-04-08T01:31:39.084Z,75.05
2018-04-08T01:32:39.050Z,74.86
2018-04-08T01:33:39.042Z,75.72
2018-04-08T01:34:39.032Z,75.72
2018-04-08T01:35:39.023Z,74.77
2018-04-08T01:36:39.017Z,75.34
2018-04-08T01:37:39.004Z,75.24
2018-04-08T01:38:38.996Z,75.34
2018-04-08T01:39:38.986Z,75.15
2018-04-08T01:40:38.978Z,75.62
2018-04-08T01:41:38.968Z,75.24
2018-04-08T01:42:38.960Z,75.91
2018-04-08T01:43:38.951Z,75.72
2018-04-08T01:44:38.941Z,76.10
2018-04-08T01:45:38.932Z,75.43
2018-04-08T01:46:38.931Z,74.48
2018-04-08T01:47:38.927Z,74.77
2018-04-08T01:48:38.905Z,74.57
2018-04-08T01:49:38.896Z,74.38
2018-04-08T01:50:38.887Z,74.96
2018-04-08T01:51:38.881Z,75.53
2018-04-08T01:52:38.926Z,75.15
2018-04-08T01:53:38.860Z,74.48
2018-04-08T01:54:38.851Z,73.91
2018-04-08T01:55:38.848Z,74.29
2018-04-08T01:56:38.848Z,73.33
2018-04-08T01:57:38.823Z,74.48
2018-04-08T01:58:38.853Z,74.01
2018-04-08T01:59:38.806Z,74.01
2018-04-08T02:00:38.804Z,74.10
2018-04-08T02:01:38.801Z,74.19
2018-04-08T02:02:38.778Z,74.57
2018-04-08T02:03:38.770Z,74.57
2018-04-08T02:04:38.761Z,73.91
2018-04-08T02:05:38.752Z,74.19
2018-04-08T02:06:38.947Z,74.01
2018-04-08T02:07:38.770Z,74.29
2018-04-08T02:08:38.725Z,74.29
2018-04-08T02:09:38.726Z,74.38
2018-04-08T02:10:38.709Z,74.96
2018-04-08T02:11:38.704Z,75.53
2018-04-08T02:12:38.690Z,75.81
2018-04-08T02:13:38.680Z,74.77
2018-04-08T02:14:38.671Z,74.38
2018-04-08T02:15:38.684Z,74.38
2018-04-08T02:16:38.654Z,75.24
2018-04-08T02:17:38.645Z,75.81
2018-04-08T02:18:38.636Z,74.38
2018-04-08T02:19:38.633Z,72.13
2018-04-08T02:20:38.618Z,71.37
2018-04-08T02:21:38.609Z,72.71
2018-04-08T02:22:38.600Z,71.75
2018-04-08T02:23:38.591Z,70.70
2018-04-08T02:24:38.583Z,68.82
2018-04-08T02:25:38.574Z,68.44
2018-04-08T02:26:38.565Z,67.87
2018-04-08T02:27:38.557Z,67.40
2018-04-08T02:28:38.586Z,66.82
2018-04-08T02:29:38.541Z,67.11
2018-04-08T02:30:38.529Z,66.47
2018-04-08T02:31:38.520Z,66.85
2018-04-08T02:32:38.514Z,68.10
2018-04-08T02:33:38.503Z,67.81
2018-04-08T02:34:38.494Z,68.06
2018-04-08T02:35:38.511Z,68.44
2018-04-08T02:36:38.525Z,69.49
2018-04-08T02:37:38.467Z,68.82
2018-04-08T02:38:38.458Z,68.63
2018-04-08T02:39:38.451Z,69.31
2018-04-08T02:40:38.441Z,69.78
2018-04-08T02:41:38.435Z,69.40
2018-04-08T02:42:38.423Z,68.06
2018-04-08T02:43:38.417Z,67.21
2018-04-08T02:44:38.406Z,67.11
2018-04-08T02:45:38.397Z,66.15
2018-04-08T02:46:38.388Z,65.71
2018-04-08T02:47:38.380Z,65.23
2018-04-08T02:48:38.389Z,65.52
2018-04-08T02:49:38.362Z,67.14
2018-04-08T02:50:38.355Z,68.76
2018-04-08T02:51:38.352Z,70.10
2018-04-08T02:52:38.339Z,67.71
2018-04-08T02:53:38.328Z,68.48
2018-04-08T02:54:38.324Z,68.86
2018-04-08T02:55:38.310Z,70.01
2018-04-08T02:56:38.302Z,71.44
2018-04-08T02:57:38.295Z,72.26
2018-04-08T02:58:38.312Z,71.41
2018-04-08T02:59:38.281Z,71.88
2018-04-08T03:00:38.285Z,73.41
2018-04-08T03:01:38.259Z,72.45
2018-04-08T03:02:38.279Z,72.83
2018-04-08T03:03:38.243Z,73.22
2018-04-08T03:04:38.234Z,73.03
2018-04-08T03:05:38.229Z,73.12
2018-04-08T03:06:38.234Z,73.12
2018-04-08T03:07:38.229Z,73.50
2018-04-08T03:08:38.201Z,73.12
2018-04-08T03:09:38.193Z,73.22
2018-04-08T03:10:38.183Z,72.42
2018-04-08T03:11:38.174Z,72.93
2018-04-08T03:12:38.167Z,73.88
2018-04-08T03:13:38.157Z,72.71
2018-04-08T03:14:38.175Z,72.36
2018-04-08T03:15:38.141Z,72.74
2018-04-08T03:16:38.176Z,72.99
2018-04-08T03:17:38.123Z,73.94
2018-04-08T03:18:38.115Z,73.03
2018-04-08T03:19:38.106Z,70.98
2018-04-08T03:20:38.098Z,68.63
2018-04-08T03:21:38.118Z,67.68
2018-04-08T03:22:38.080Z,66.15
2018-04-08T03:23:38.072Z,65.58
2018-04-08T03:24:38.070Z,65.39
2018-04-08T03:25:38.054Z,64.75
2018-04-08T03:26:38.046Z,63.80
2018-04-08T03:27:38.037Z,63.51
2018-04-08T03:28:38.029Z,65.71
2018-04-08T03:29:38.227Z,67.05
2018-04-08T03:30:38.012Z,66.19
2018-04-08T03:31:38.004Z,66.28
2018-04-08T03:32:37.994Z,67.14
2018-04-08T03:33:37.984Z,67.14
2018-04-08T03:34:37.993Z,67.91
2018-04-08T03:35:37.978Z,67.62
2018-04-08T03:36:37.975Z,67.91
2018-04-08T03:37:37.950Z,67.71
2018-04-08T03:38:37.973Z,68.63
2018-04-08T03:39:37.933Z,68.73
2018-04-08T03:40:37.925Z,68.82
2018-04-08T03:41:37.916Z,69.59
2018-04-08T03:42:37.912Z,70.64
2018-04-08T03:43:37.903Z,71.98
2018-04-08T03:44:37.891Z,71.78
2018-04-08T03:45:37.882Z,71.88
2018-04-08T03:46:37.873Z,71.59
2018-04-08T03:47:37.865Z,71.98
2018-04-08T03:48:37.858Z,71.98
2018-04-08T03:49:37.855Z,72.55
2018-04-08T03:50:37.891Z,73.03
2018-04-08T03:51:37.831Z,72.61
2018-04-08T03:52:37.823Z,72.99
2018-04-08T03:53:37.823Z,72.89
2018-04-08T03:54:37.808Z,73.18
2018-04-08T03:55:37.796Z,73.94
2018-04-08T03:56:37.812Z,74.32
2018-04-08T03:57:37.779Z,74.42
2018-04-08T03:58:37.771Z,74.61
2018-04-08T03:59:37.775Z,74.80
2018-04-08T04:00:37.753Z,75.95
2018-04-08T04:01:37.776Z,75.76
2018-04-08T04:02:37.735Z,75.09
2018-04-08T04:03:37.736Z,75.05
2018-04-08T04:05:37.720Z,75.91
2018-04-08T04:06:37.710Z,76.67
2018-04-08T04:07:37.700Z,76.96
2018-04-08T04:08:37.702Z,76.20
2018-04-08T04:09:37.723Z,76.77
2018-04-08T04:10:37.665Z,76.10
2018-04-08T04:11:37.656Z,76.86
2018-04-08T04:12:37.648Z,77.62
2018-04-08T04:13:37.640Z,76.73
2018-04-08T04:14:37.628Z,77.30
2018-04-08T04:15:37.620Z,77.69
2018-04-08T04:16:37.610Z,77.87
2018-04-08T04:17:37.637Z,78.25
2018-04-08T04:18:37.592Z,78.64
2018-04-08T04:19:37.583Z,79.02
2018-04-08T04:20:37.574Z,79.11
2018-04-08T04:21:37.567Z,79.30
2018-04-08T04:22:37.560Z,79.78
2018-04-08T04:23:37.546Z,79.68
2018-04-08T04:24:37.540Z,79.40
2018-04-08T04:25:37.527Z,79.97
2018-04-08T04:26:37.742Z,79.78
2018-04-08T04:27:37.554Z,79.59
2018-04-08T04:28:37.503Z,80.44
2018-04-08T04:29:37.490Z,80.35
2018-04-08T04:30:37.488Z,80.41
2018-04-08T04:31:37.493Z,80.50
2018-04-08T04:32:37.463Z,80.69
2018-04-08T04:33:37.452Z,80.41
2018-04-08T04:34:37.455Z,79.83
2018-04-08T04:35:37.472Z,78.59
2018-04-08T04:36:37.425Z,78.78
2018-04-08T04:37:37.442Z,78.64
2018-04-08T04:38:37.406Z,79.49
2018-04-08T04:39:37.397Z,79.74
2018-04-08T04:40:37.387Z,79.74
2018-04-08T04:41:37.380Z,79.55
2018-04-08T04:42:37.368Z,80.02
2018-04-08T04:43:37.410Z,79.83
2018-04-08T04:44:37.362Z,80.02
2018-04-08T04:45:37.592Z,80.60
2018-04-08T04:46:37.342Z,81.26
2018-04-08T04:47:37.347Z,81.84
2018-04-08T04:48:37.331Z,82.03
2018-04-08T04:49:37.300Z,82.03
2018-04-08T04:50:37.292Z,81.26
2018-04-08T04:51:37.282Z,82.03
2018-04-08T04:52:37.312Z,81.65
2018-04-08T04:53:37.271Z,81.46
2018-04-08T04:54:37.335Z,81.74
2018-04-08T04:55:37.243Z,81.46
2018-04-08T04:57:37.228Z,82.50
2018-04-08T04:58:37.324Z,82.69
2018-04-08T04:59:37.207Z,82.60
2018-04-08T05:00:37.196Z,81.55
2018-04-08T05:01:37.185Z,81.07
2018-04-08T05:02:37.189Z,80.98
2018-04-08T05:03:37.169Z,80.88
2018-04-08T05:04:37.160Z,80.88
2018-04-08T05:05:37.146Z,80.79
2018-04-08T05:06:37.142Z,80.41
2018-04-08T05:07:37.127Z,80.69
2018-04-08T05:08:37.128Z,80.69
2018-04-08T05:09:37.113Z,80.31
2018-04-08T05:10:37.108Z,80.12
2018-04-08T05:11:37.088Z,80.41
2018-04-08T05:12:37.088Z,79.74
2018-04-08T05:13:37.068Z,78.78
2018-04-08T05:14:37.128Z,78.31
2018-04-08T05:15:37.049Z,78.16
2018-04-08T05:16:37.042Z,78.16
2018-04-08T05:17:37.029Z,78.06
2018-04-08T05:18:37.019Z,78.25
2018-04-08T05:19:37.014Z,78.16
2018-04-08T05:20:37.000Z,78.16
2018-04-08T05:21:36.989Z,77.87
2018-04-08T05:22:37.028Z,79.11
2018-04-08T05:23:36.972Z,77.69
2018-04-08T05:24:36.964Z,78.35
2018-04-08T05:25:36.950Z,77.97
2018-04-08T05:26:36.948Z,78.16
2018-04-08T05:27:36.932Z,77.97
2018-04-08T05:28:37.005Z,79.02
2018-04-08T05:29:37.130Z,77.59
2018-04-08T05:30:36.916Z,78.35
2018-04-08T05:31:36.896Z,78.16
2018-04-08T05:32:36.886Z,77.49
2018-04-08T05:33:36.876Z,76.48
2018-04-08T05:34:36.916Z,77.25
2018-04-08T05:35:36.904Z,75.62
2018-04-08T05:36:36.849Z,74.19
2018-04-08T05:37:36.836Z,73.43
2018-04-08T05:38:36.827Z,73.72
2018-04-08T05:39:36.818Z,72.96
2018-04-08T05:40:36.807Z,73.05
2018-04-08T05:41:36.797Z,72.96
2018-04-08T05:43:36.803Z,72.61
2018-04-08T05:44:36.767Z,73.94
2018-04-08T05:45:36.757Z,73.18
2018-04-08T05:46:36.748Z,72.99
2018-04-08T05:47:36.947Z,73.28
2018-04-08T05:48:36.729Z,73.28
2018-04-08T05:49:36.719Z,74.57
2018-04-08T05:50:36.710Z,74.90
2018-04-08T05:51:36.775Z,74.38
2018-04-08T05:52:36.692Z,73.47
2018-04-08T05:53:36.683Z,73.66
2018-04-08T05:54:36.672Z,74.23
2018-04-08T05:55:36.664Z,76.23
2018-04-08T05:56:36.684Z,76.90
2018-04-08T05:57:36.652Z,77.38
2018-04-08T05:58:36.639Z,77.67
2018-04-08T05:59:36.625Z,78.62
2018-04-08T06:00:36.617Z,79.38
2018-04-08T06:01:36.676Z,78.81
2018-04-08T06:02:36.649Z,79.19
2018-04-08T06:03:36.589Z,79.28
2018-04-08T06:04:36.580Z,78.72
2018-04-08T06:05:36.579Z,77.38
2018-04-08T06:06:36.562Z,77.28
2018-04-08T06:07:36.774Z,77.76
2018-04-08T06:08:36.552Z,78.23
2018-04-08T06:09:36.536Z,77.95
2018-04-08T06:10:36.527Z,75.22
2018-04-08T06:11:36.526Z,72.83
2018-04-08T06:12:36.610Z,72.45
2018-04-08T06:13:36.503Z,72.36
2018-04-08T06:14:36.496Z,69.97
2018-04-08T06:15:36.485Z,69.49
2018-04-08T06:16:36.476Z,69.11
2018-04-08T06:17:36.701Z,69.49
2018-04-08T06:18:36.465Z,69.78
2018-04-08T06:19:36.455Z,69.59
2018-04-08T06:20:36.442Z,70.73
2018-04-08T06:21:36.432Z,71.21
2018-04-08T06:22:36.423Z,70.64
2018-04-08T06:23:36.415Z,70.45
2018-04-08T06:24:36.407Z,70.07
2018-04-08T06:25:36.398Z,68.44
2018-04-08T06:26:36.389Z,68.63
2018-04-08T06:27:36.383Z,68.92
2018-04-08T06:28:36.372Z,68.96
2018-04-08T06:29:36.367Z,70.10
2018-04-08T06:30:36.358Z,69.05
2018-04-08T06:31:36.439Z,69.34
2018-04-08T06:32:36.434Z,71.53
2018-04-08T06:33:36.364Z,71.44
2018-04-08T06:34:36.322Z,72.39
2018-04-08T06:35:36.313Z,73.07
2018-04-08T06:36:36.309Z,75.16
2018-04-08T06:37:36.383Z,75.64
2018-04-08T06:38:36.304Z,75.64
2018-04-08T06:39:36.278Z,73.25
2018-04-08T06:40:36.270Z,72.20
2018-04-08T06:41:36.265Z,72.58
2018-04-08T06:42:36.294Z,74.21
2018-04-08T06:43:36.263Z,74.02
2018-04-08T06:44:36.242Z,75.54
2018-04-08T06:45:36.235Z,75.16
2018-04-08T06:46:36.224Z,73.16
2018-04-08T06:47:36.213Z,72.01
2018-04-08T06:48:36.211Z,74.11
2018-04-08T06:49:36.265Z,73.44
2018-04-08T06:50:36.236Z,73.44
2018-04-08T06:51:36.186Z,72.87
2018-04-08T06:52:36.173Z,73.63
2018-04-08T06:53:36.178Z,71.82
2018-04-08T06:54:36.156Z,70.33
2018-04-08T06:55:36.172Z,71.28
2018-04-08T06:56:36.153Z,75.20
2018-04-08T06:57:36.138Z,76.54
2018-04-08T06:58:36.130Z,76.25
2018-04-08T06:59:36.125Z,76.54
2018-04-08T07:00:36.113Z,76.45
2018-04-08T07:01:36.102Z,78.45
2018-04-08T07:02:36.147Z,77.40
2018-04-08T07:03:36.088Z,74.44
2018-04-08T07:04:36.080Z,72.53
2018-04-08T07:05:36.072Z,71.28
2018-04-08T07:06:36.064Z,71.86
2018-04-08T07:07:36.057Z,73.00
2018-04-08T07:08:36.050Z,75.39
2018-04-08T07:09:36.078Z,75.01
2018-04-08T07:10:36.035Z,76.16
2018-04-08T07:11:36.027Z,74.15
2018-04-08T07:12:36.026Z,75.10
2018-04-08T07:13:36.011Z,76.82
2018-04-08T07:14:36.004Z,77.11
2018-04-08T07:15:35.997Z,77.40
2018-04-08T07:16:35.992Z,77.59
2018-04-08T07:17:35.984Z,78.16
2018-04-08T07:18:36.016Z,78.26
2018-04-08T07:19:35.970Z,73.00
2018-04-08T07:20:35.966Z,69.95
2018-04-08T07:21:35.961Z,72.14
2018-04-08T07:22:36.162Z,72.43
2018-04-08T07:23:35.952Z,70.81
2018-04-08T07:24:35.981Z,72.62
2018-04-08T07:25:35.934Z,74.34
2018-04-08T07:26:35.918Z,74.24
2018-04-08T07:27:35.908Z,74.24
2018-04-08T07:28:35.944Z,71.09
2018-04-08T07:29:35.914Z,71.32
2018-04-08T07:30:35.886Z,70.84
2018-04-08T07:31:35.886Z,70.27
2018-04-08T07:32:35.875Z,68.16
2018-04-08T07:33:35.919Z,69.70
2018-04-08T07:34:35.963Z,68.45
2018-04-08T07:35:35.854Z,68.64
2018-04-08T07:36:35.844Z,68.55
2018-04-08T07:37:35.878Z,71.61
2018-04-08T07:38:35.837Z,71.89
2018-04-08T07:39:35.823Z,70.84
2018-04-08T07:40:35.816Z,67.11
2018-04-08T07:41:35.873Z,68.84
2018-04-08T07:42:35.876Z,72.94
2018-04-08T07:43:35.812Z,73.71
2018-04-08T07:44:35.789Z,74.66
2018-04-08T07:45:35.779Z,71.26
2018-04-08T07:46:35.776Z,68.74
2018-04-08T07:47:35.766Z,66.63
2018-04-08T07:48:35.896Z,67.02
2018-04-08T07:49:35.858Z,67.02
2018-04-08T07:50:35.780Z,68.01
2018-04-08T07:51:35.738Z,69.35
2018-04-08T07:52:35.733Z,68.68
2018-04-08T07:53:35.728Z,69.44
2018-04-08T07:54:35.927Z,68.68
2018-04-08T07:55:35.711Z,68.10
2018-04-08T07:56:35.707Z,68.01
2018-04-08T07:57:35.700Z,69.15
2018-04-08T07:58:35.696Z,69.35
2018-04-08T07:59:35.718Z,73.08
2018-04-08T08:00:35.678Z,71.16
2018-04-08T08:01:35.671Z,69.06
2018-04-08T08:02:35.669Z,68.39
2018-04-08T08:03:35.658Z,68.58
2018-04-08T08:04:35.653Z,68.96
2018-04-08T08:05:35.645Z,69.09
2018-04-08T08:06:35.641Z,69.57
2018-04-08T08:07:35.630Z,72.44
2018-04-08T08:08:35.628Z,75.12
2018-04-08T08:09:35.619Z,75.31
2018-04-08T08:10:35.692Z,72.73
2018-04-08T08:11:35.612Z,70.91
2018-04-08T08:12:35.646Z,72.34
2018-04-08T08:13:35.608Z,67.66
2018-04-08T08:14:35.594Z,66.80
2018-04-08T08:15:35.586Z,65.84
2018-04-08T08:16:35.594Z,65.17
2018-04-08T08:17:35.592Z,66.61
2018-04-08T08:18:35.564Z,68.80
2018-04-08T08:19:35.557Z,67.41
2018-04-08T08:20:35.550Z,67.11
2018-04-08T08:21:35.548Z,67.31
2018-04-08T08:22:35.537Z,67.41
2018-04-08T08:23:35.595Z,66.64
2018-04-08T08:24:35.566Z,64.72
2018-04-08T08:25:35.522Z,64.53
2018-04-08T08:26:35.514Z,63.96
2018-04-08T08:27:35.509Z,67.69
2018-04-08T08:28:35.503Z,66.06
2018-04-08T08:29:35.499Z,64.63
2018-04-08T08:30:35.553Z,64.34
2018-04-08T08:31:35.497Z,62.23
2018-04-08T08:32:35.485Z,61.94
2018-04-08T08:33:35.475Z,62.43
2018-04-08T08:34:35.482Z,62.36
2018-04-08T08:35:35.464Z,64.76
2018-04-08T08:36:35.568Z,64.76
2018-04-08T08:37:35.489Z,63.89
2018-04-08T08:38:35.450Z,65.14
2018-04-08T08:39:35.443Z,63.51
2018-04-08T08:40:35.449Z,63.89
2018-04-08T08:41:35.647Z,61.91
2018-04-08T08:42:35.446Z,60.38
2018-04-08T08:43:35.453Z,59.80
2018-04-08T08:44:35.422Z,59.71
2018-04-08T08:45:35.626Z,60.00
2018-04-08T08:46:35.487Z,62.13
2018-04-08T08:47:35.412Z,61.27
2018-04-08T08:48:35.406Z,61.75
2018-04-08T08:49:35.402Z,58.87
2018-04-08T08:50:35.401Z,58.87
2018-04-08T08:51:35.394Z,60.03
2018-04-08T08:52:35.425Z,59.45
2018-04-08T08:53:35.390Z,60.22
2018-04-08T08:54:35.393Z,59.86
2018-04-08T08:55:35.387Z,58.81
2018-04-08T08:56:35.379Z,59.86
2018-04-08T08:57:35.400Z,60.47
2018-04-08T08:58:35.374Z,62.01
2018-04-08T08:59:35.370Z,62.77
2018-04-08T09:00:35.373Z,61.81
2018-04-08T09:01:35.365Z,61.62
2018-04-08T09:02:35.364Z,63.09
2018-04-08T09:03:35.360Z,60.78
2018-04-08T09:04:35.360Z,62.71
2018-04-08T09:05:35.359Z,60.78
2018-04-08T09:06:35.405Z,60.02
2018-04-08T09:07:35.358Z,60.50
2018-04-08T09:08:35.354Z,60.60
2018-04-08T09:09:35.348Z,58.87
2018-04-08T09:10:35.357Z,58.58
2018-04-08T09:11:35.385Z,59.25
2018-04-08T09:12:35.339Z,57.33
2018-04-08T09:13:35.336Z,57.04
2018-04-08T09:14:35.385Z,57.07
2018-04-08T09:15:35.345Z,58.89
2018-04-08T09:16:35.331Z,59.47
2018-04-08T09:17:35.327Z,59.19
2018-04-08T09:18:35.350Z,56.78
2018-04-08T09:19:35.328Z,57.65
2018-04-08T09:20:35.324Z,58.15
2018-04-08T09:21:35.326Z,56.71
2018-04-08T09:22:35.323Z,55.94
2018-04-08T09:23:35.524Z,56.14
2018-04-08T09:24:35.320Z,57.77
2018-04-08T09:25:35.313Z,58.83
2018-04-08T09:26:35.317Z,59.22
2018-04-08T09:27:35.406Z,57.48
2018-04-08T09:28:35.316Z,58.25
2018-04-08T09:29:35.310Z,59.34
2018-04-08T09:30:35.311Z,58.18
2018-04-08T09:31:35.310Z,55.68
2018-04-08T09:32:35.313Z,55.11
2018-04-08T09:33:35.305Z,58.09
2018-04-08T09:34:35.307Z,58.28
2018-04-08T09:35:35.314Z,59.92
2018-04-08T09:36:35.303Z,61.46
2018-04-08T09:37:35.300Z,60.88
2018-04-08T09:38:35.299Z,55.98
2018-04-08T09:39:35.503Z,53.66
2018-04-08T09:40:35.370Z,53.76
2018-04-08T09:41:35.515Z,53.38
2018-04-08T09:42:35.349Z,55.59
2018-04-08T09:43:35.358Z,54.91
2018-04-08T09:44:35.408Z,55.78
2018-04-08T09:45:35.359Z,55.78
2018-04-08T09:46:35.366Z,58.28
2018-04-08T09:47:35.502Z,57.32
2018-04-08T09:48:35.293Z,58.37
2018-04-08T09:49:35.341Z,59.72
2018-04-08T09:51:35.373Z,55.20
2018-04-08T09:52:35.493Z,54.75
2018-04-08T09:53:35.335Z,57.35
2018-04-08T09:54:35.290Z,56.00
2018-04-08T09:55:35.320Z,54.65
2018-04-08T09:56:35.292Z,53.02
2018-04-08T09:57:35.287Z,55.23
2018-04-08T09:58:35.287Z,52.85
2018-04-08T09:59:35.290Z,53.53
2018-04-08T10:00:35.287Z,52.08
2018-04-08T10:01:35.383Z,50.93
2018-04-08T10:02:35.335Z,54.03
2018-04-08T10:03:35.287Z,52.87
2018-04-08T10:04:35.289Z,50.57
2018-04-08T10:05:35.348Z,51.82
2018-04-08T10:06:35.491Z,52.40
2018-04-08T10:07:35.357Z,50.66
2018-04-08T10:08:35.376Z,49.60
2018-04-08T10:09:35.302Z,50.73
2018-04-08T10:10:35.288Z,50.83
2018-04-08T10:11:35.286Z,54.78
2018-04-08T10:12:35.288Z,53.33
2018-04-08T10:13:35.378Z,53.53
2018-04-08T10:14:35.334Z,53.05
2018-04-08T10:15:35.291Z,53.23
2018-04-08T10:16:35.286Z,53.53
2018-04-08T10:17:35.313Z,52.18
2018-04-08T10:18:35.337Z,52.85
2018-04-08T10:19:35.305Z,55.16
2018-04-08T10:20:35.286Z,54.97
2018-04-08T10:21:35.290Z,53.33
2018-04-08T10:22:35.285Z,54.97
2018-04-08T10:23:35.284Z,54.85
2018-04-08T10:24:35.284Z,57.25
2018-04-08T10:25:35.283Z,59.85
2018-04-08T10:26:35.283Z,60.33
2018-04-08T10:27:35.283Z,61.26
2018-04-08T10:28:35.284Z,63.76
2018-04-08T10:29:35.280Z,63.48
2018-04-08T10:30:35.346Z,62.87
2018-04-08T10:31:35.486Z,62.48
2018-04-08T10:32:35.487Z,62.00
2018-04-08T10:34:35.316Z,62.58
2018-04-08T10:35:35.273Z,62.29
2018-04-08T10:36:35.272Z,63.54
2018-04-08T10:37:35.270Z,62.58
2018-04-08T10:38:35.271Z,62.10
2018-04-08T10:39:35.316Z,61.61
2018-04-08T10:40:35.272Z,61.55
2018-04-08T10:41:35.265Z,60.21
2018-04-08T10:42:35.265Z,60.33
2018-04-08T10:43:35.469Z,59.27
2018-04-08T10:44:35.295Z,59.20
2018-04-08T10:45:35.268Z,55.87
2018-04-08T10:46:35.268Z,56.09
2018-04-08T10:47:35.267Z,55.22
2018-04-08T10:48:35.275Z,55.60
2018-04-08T10:49:35.270Z,54.83
2018-04-08T10:50:35.480Z,55.79
2018-04-08T10:51:35.330Z,54.57
2018-04-08T10:52:35.283Z,53.51
2018-04-08T10:53:35.281Z,53.51
2018-04-08T10:54:35.291Z,52.09
2018-04-08T10:55:35.287Z,53.27
2018-04-08T10:56:35.326Z,50.31
2018-04-08T10:57:35.330Z,49.15
2018-04-08T10:58:35.304Z,48.11
2018-04-08T10:59:35.309Z,48.21
2018-04-08T11:00:35.318Z,48.39
2018-04-08T11:01:35.324Z,48.01
2018-04-08T11:02:35.398Z,47.12
2018-04-08T11:03:35.382Z,48.66
2018-04-08T11:04:35.342Z,50.31
2018-04-08T11:05:35.347Z,49.80
2018-04-08T11:06:35.352Z,49.80
2018-04-08T11:07:35.579Z,48.83
2018-04-08T11:08:35.380Z,49.19
2018-04-08T11:09:35.368Z,51.51
2018-04-08T11:10:35.374Z,51.32
2018-04-08T11:11:35.373Z,51.89
2018-04-08T11:12:35.377Z,49.77
2018-04-08T11:13:35.378Z,49.75
2018-04-08T11:14:35.381Z,50.81
2018-04-08T11:15:35.384Z,50.71
2018-04-08T11:16:35.398Z,50.13
2018-04-08T11:17:35.394Z,50.13
2018-04-08T11:18:35.393Z,49.84
2018-04-08T11:19:35.396Z,51.77
2018-04-08T11:20:35.468Z,49.75
2018-04-08T11:21:35.469Z,51.03
2018-04-08T11:22:35.476Z,50.84
2018-04-08T11:23:35.481Z,49.22
2018-04-08T11:24:35.411Z,48.08
2018-04-08T11:25:35.410Z,46.47
2018-04-08T11:26:35.414Z,44.92
2018-04-08T11:27:35.415Z,46.08
2018-04-08T11:28:35.421Z,46.30
2018-04-08T11:29:35.455Z,43.59
2018-04-08T11:30:35.439Z,44.65
2018-04-08T11:31:35.553Z,45.23
2018-04-08T11:32:35.488Z,45.64
2018-04-08T11:33:35.490Z,44.96
2018-04-08T11:34:35.456Z,42.37
2018-04-08T11:35:35.469Z,40.25
2018-04-08T11:36:35.476Z,40.84
2018-04-08T11:37:35.548Z,41.55
2018-04-08T11:38:35.497Z,42.13
2018-04-08T11:39:35.520Z,40.99
2018-04-08T11:40:35.509Z,40.99
2018-04-08T11:41:35.518Z,41.00
2018-04-08T11:42:35.528Z,38.09
2018-04-08T11:43:35.604Z,41.12
2018-04-08T11:44:35.557Z,40.08
2018-04-08T11:45:35.562Z,39.70
2018-04-08T11:46:35.574Z,36.11
2018-04-08T11:47:35.586Z,36.02
2018-04-08T11:48:35.821Z,37.84
2018-04-08T11:49:35.609Z,37.65
2018-04-08T11:50:35.622Z,37.07
2018-04-08T11:51:35.634Z,35.86
2018-04-08T11:52:35.657Z,36.52
2018-04-08T11:53:35.662Z,36.22
2018-04-08T11:54:35.743Z,38.76
2018-04-08T11:55:35.700Z,37.69
2018-04-08T11:56:35.695Z,37.90
2018-04-08T11:57:35.703Z,36.44
2018-04-08T11:58:35.715Z,36.44
2018-04-08T11:59:35.727Z,35.69
2018-04-08T12:00:35.810Z,35.59
2018-04-08T12:01:35.786Z,35.49
2018-04-08T12:02:35.763Z,35.88
2018-04-08T12:03:35.774Z,36.93
2018-04-08T12:04:35.802Z,36.54
2018-04-08T12:05:35.886Z,34.33
2018-04-08T12:06:35.810Z,35.59
2018-04-08T12:07:35.822Z,36.16
2018-04-08T12:08:35.834Z,37.61
2018-04-08T12:09:35.845Z,36.64
2018-04-08T12:10:35.857Z,38.78
2018-04-08T12:11:35.921Z,36.93
2018-04-08T12:12:35.879Z,36.56
2018-04-08T12:13:35.898Z,36.19
2018-04-08T12:14:35.900Z,34.93
2018-04-08T12:15:35.912Z,35.80
2018-04-08T12:16:35.923Z,35.61
2018-04-08T12:17:36.003Z,32.41
2018-04-08T12:18:35.983Z,32.99
2018-04-08T12:19:36.172Z,32.70
2018-04-08T12:20:35.990Z,32.79
2018-04-08T12:21:35.990Z,34.85
2018-04-08T12:22:35.992Z,33.39
2018-04-08T12:23:36.004Z,33.11
2018-04-08T12:24:36.016Z,32.89
2018-04-08T12:25:36.027Z,32.50
2018-04-08T12:26:36.089Z,32.99
2018-04-08T12:27:36.060Z,32.62
2018-04-08T12:28:36.061Z,32.91
2018-04-08T12:29:36.077Z,34.08
2018-04-08T12:30:36.082Z,33.29
2018-04-08T12:31:36.167Z,31.94
2018-04-08T12:32:36.114Z,31.82
2018-04-08T12:33:36.115Z,32.50
2018-04-08T12:34:36.129Z,31.15
2018-04-08T12:35:36.138Z,32.52
2018-04-08T12:36:36.150Z,31.74
2018-04-08T12:37:36.159Z,31.37
2018-04-08T12:38:36.176Z,32.24
2018-04-08T12:39:36.181Z,30.21
2018-04-08T12:40:36.193Z,29.72
2018-04-08T12:41:36.202Z,30.30
2018-04-08T12:42:36.214Z,30.11
2018-04-08T12:43:36.236Z,30.58
2018-04-08T12:44:36.240Z,29.61
2018-04-08T12:45:36.250Z,28.85
2018-04-08T12:46:36.258Z,29.52
2018-04-08T12:47:36.269Z,27.00
2018-04-08T12:48:36.278Z,29.82
2018-04-08T12:49:36.286Z,27.59
2018-04-08T12:50:36.295Z,27.87
2018-04-08T12:51:36.306Z,27.97
2018-04-08T12:52:36.317Z,28.36
2018-04-08T12:53:36.327Z,29.04
2018-04-08T12:54:36.335Z,28.36
2018-04-08T12:55:36.417Z,27.89
2018-04-08T12:56:36.356Z,28.38
2018-04-08T12:57:36.364Z,29.55